Skip Navigation Links
NOAA logo - Click to go to the NOAA homepage
NOAA's National Weather Service
Alaska Aviation Weather Unit
  NWS logo - Click to go to the NWS homepage
Left Navbar Graphic     08 AKDT = 16 GMT

   
NOAA is celebrating 200 years of science, service, and stewardship. Visit the NOAA 200th celebration Web site to learn more.
USA.gov is the U.S. Government's official Web portal to all Federal, state and local government Web resources and services.
Facebook
NWS on Facebook

Important Change Regarding the AAWU Web Presence

 

Over the last several months, the AAWU has been working to navigate its webpages to a nationally supported server. Security, as well as other needs, have necessitated the change.  In the process, we have made an effort to enhance the functionality of our website, as well as some of our products. As of June 20, 2017, aawu.arh.noaa.gov will be discontinued. The new AAWU web address is weather.gov/aawu. It is now live and will run in-parallel with the old site until it is discontinued. Please send any feedback or questions regarding the new webpages to nws.ar.aawu.webauthors@noaa.gov.  Thank you for your patience during this time of transition.
AAWU Home :: Display TAF Add Bookmark
TAF CYYE 231238Z 2313/2401 VRB03KT P6SM BKN100 BKN200
    RMK NXT FCST BY 231900Z=

METAR CYYE 231000Z 00000KT 15SM BKN110 12/06 A2974 RMK AC7 SLP077 DENSITY ALT 1300FT= METAR CYYE 231100Z 00000KT 20SM BKN100 12/06 A2974 RMK AC7 SLP077 DENSITY ALT 1300FT= METAR CYYE 231200Z 23004KT 20SM SCT100 BKN200 10/06 A2974 RMK AC4CI3 SLP079= METAR CYYE 231300Z 18003KT 20SM BKN095 BKN200 13/06 A2974 RMK AC5CI2 SLP078 DENSITY ALT 1400FT= METAR CYYE 231400Z VRB02KT 30SM BKN090 BKN200 14/07 A2974 RMK AC6CI1 SLP076 DENSITY ALT 1600FT= METAR CYYE 231500Z 18004KT 160V220 30SM SCT120 BKN210 16/06 A2972 RMK AC4CC1 SLP071 DENSITY ALT 1800FT= METAR CYYE 231600Z 20006KT 170V350 30SM FEW050 SCT120 BKN210 16/05 A2971 RMK CU1AC3CI1 SLP067 DENSITY ALT 1900FT=
 Alaska TAF Map

NOAA's National Weather Service
Alaska Aviation Weather Unit
6930 Sand Lake Road
Anchorage, AK 99502-1845
Disclaimer
Credits
Glossary
Privacy Policy
About Us
Career Opportunities
Contact AAWU Internet Services Site last modified: April, 17th 2012